Time;durP1;ratioP1;P1;durP2;ratioP2;P2;SDS_P1;SDS_P2;PMS_P1;PMS_P2;Temp;Humidity;BMP_temperature;BMP_pressure;BME280_temperature;BME280_humidity;BME280_pressure;Samples;Min_cycle;Max_cycle;Signal;HPM_P1;HPM_P2
2022/06/24 00:01:14;;;;;;;4.63;4.22;;;20.30;80.50;;;;;;4985448;28;20521;-85
2022/06/24 00:03:47;;;;;;;4.75;4.32;;;20.30;80.30;;;;;;4975135;28;20114;-83
2022/06/24 00:06:14;;;;;;;4.85;4.00;;;20.40;80.20;;;;;;4984059;28;20697;-84
2022/06/24 00:08:59;;;;;;;4.78;4.00;;;20.50;79.60;;;;;;4982568;28;20521;-86
2022/06/24 00:11:26;;;;;;;3.80;3.50;;;20.50;79.80;;;;;;4977812;28;20480;-86
2022/06/24 00:14:05;;;;;;;4.38;3.97;;;20.50;79.60;;;;;;4994450;28;20076;-88
2022/06/24 00:16:31;;;;;;;4.32;3.65;;;20.60;79.30;;;;;;4991680;28;20034;-88
2022/06/24 00:19:12;;;;;;;4.07;3.67;;;20.50;79.30;;;;;;4943760;28;20517;-86
2022/06/24 00:21:38;;;;;;;3.95;3.65;;;20.50;79.50;;;;;;4953925;28;20035;-86
2022/06/24 00:24:04;;;;;;;4.20;3.60;;;20.50;79.60;;;;;;4976221;28;20034;-85
2022/06/24 00:26:42;;;;;;;5.20;3.92;;;20.50;79.50;;;;;;4975961;28;20117;-86
2022/06/24 00:29:09;;;;;;;4.68;3.85;;;20.40;79.60;;;;;;4972462;28;20042;-85
2022/06/24 00:31:35;;;;;;;4.72;4.10;;;20.40;79.80;;;;;;4955854;28;20030;-87
2022/06/24 00:34:00;;;;;;;4.13;3.72;;;20.30;79.30;;;;;;4990819;28;20038;-87
2022/06/24 00:36:26;;;;;;;5.95;4.28;;;20.30;79.40;;;;;;4978883;28;20047;-86
2022/06/24 00:38:52;;;;;;;5.80;4.07;;;20.30;79.50;;;;;;4943066;28;20124;-86
2022/06/24 00:41:24;;;;;;;4.15;3.75;;;20.40;79.40;;;;;;4959076;28;20037;-85
2022/06/24 00:43:55;;;;;;;4.53;4.13;;;20.30;79.50;;;;;;4982004;28;20057;-86
2022/06/24 00:46:24;;;;;;;4.05;3.65;;;20.40;79.60;;;;;;4961573;28;20037;-86
2022/06/24 00:48:54;;;;;;;4.35;3.95;;;20.40;79.70;;;;;;4983333;28;20396;-84
2022/06/24 00:51:22;;;;;;;4.60;4.20;;;20.40;79.90;;;;;;5001504;28;20054;-84
2022/06/24 00:53:49;;;;;;;5.72;4.38;;;20.40;80.10;;;;;;4994411;28;20064;-84
2022/06/24 00:56:22;;;;;;;6.28;3.92;;;20.40;80.50;;;;;;4985694;28;20084;-84
2022/06/24 00:58:56;;;;;;;5.18;4.30;;;20.40;80.80;;;;;;4981056;28;20724;-87
2022/06/24 01:01:33;;;;;;;5.07;4.30;;;20.30;81.20;;;;;;4963656;28;20473;-86
2022/06/24 01:04:00;;;;;;;4.05;3.67;;;20.30;81.50;;;;;;4973791;28;20046;-86
2022/06/24 01:06:28;;;;;;;4.57;4.18;;;20.20;81.80;;;;;;4959176;28;20512;-86
2022/06/24 01:08:55;;;;;;;4.53;4.13;;;20.00;82.20;;;;;;4973902;28;20030;-86
2022/06/24 01:11:25;;;;;;;5.00;4.50;;;20.00;82.80;;;;;;4984349;28;20042;-84
2022/06/24 01:13:51;;;;;;;5.03;4.18;;;20.00;83.10;;;;;;4993392;28;20042;-86
2022/06/24 01:16:20;;;;;;;4.85;4.28;;;19.90;83.10;;;;;;4985394;28;20551;-85
2022/06/24 01:18:46;;;;;;;5.57;4.47;;;19.90;83.70;;;;;;4996943;28;20468;-85
2022/06/24 01:21:35;;;;;;;5.20;4.70;;;19.90;84.00;;;;;;4948008;28;20041;-85
2022/06/24 01:24:06;;;;;;;4.97;4.50;;;19.80;84.40;;;;;;4989212;28;20022;-86
2022/06/24 01:26:34;;;;;;;5.00;4.57;;;19.80;85.50;;;;;;4977894;28;20117;-86
2022/06/24 01:28:59;;;;;;;7.68;5.30;;;19.70;85.00;;;;;;4977075;28;20030;-84
2022/06/24 01:31:25;;;;;;;7.50;4.93;;;19.70;85.00;;;;;;4962887;28;20087;-85
2022/06/24 01:33:51;;;;;;;5.10;4.57;;;19.70;85.30;;;;;;4978797;28;20130;-85
2022/06/24 01:36:17;;;;;;;5.43;4.85;;;19.70;85.70;;;;;;4982903;28;20125;-85
2022/06/24 01:38:43;;;;;;;6.30;4.50;;;19.60;86.60;;;;;;4976777;28;20026;-84
2022/06/24 01:41:08;;;;;;;5.22;4.72;;;19.60;86.20;;;;;;4941046;28;20037;-87
2022/06/24 01:43:35;;;;;;;5.18;4.38;;;19.60;86.50;;;;;;4976021;28;20034;-84
2022/06/24 01:46:01;;;;;;;5.25;4.75;;;19.50;86.70;;;;;;4984077;28;20045;-84
2022/06/24 01:48:27;;;;;;;4.75;4.18;;;19.50;87.70;;;;;;4993786;28;20041;-84
2022/06/24 01:50:53;;;;;;;6.28;4.93;;;19.50;87.30;;;;;;4970527;28;20034;-85
2022/06/24 01:53:18;;;;;;;5.60;5.07;;;19.40;87.40;;;;;;4965691;28;20520;-85
2022/06/24 01:55:45;;;;;;;6.47;5.47;;;19.40;87.80;;;;;;4997299;28;20096;-85
2022/06/24 01:58:11;;;;;;;6.68;5.40;;;19.30;88.10;;;;;;4977054;28;20034;-84
2022/06/24 02:00:36;;;;;;;8.20;5.20;;;19.20;88.70;;;;;;4980185;28;20041;-86
2022/06/24 02:03:06;;;;;;;5.70;5.15;;;19.20;89.20;;;;;;5012153;28;20061;-86
2022/06/24 02:05:32;;;;;;;5.45;4.95;;;19.10;89.40;;;;;;4986612;28;20084;-86
2022/06/24 02:07:58;;;;;;;10.68;6.03;;;19.10;90.20;;;;;;4979801;28;20389;-84
2022/06/24 02:13:28;;;;;;;5.43;4.95;;;19.00;90.40;;;;;;4996908;28;20053;-84
2022/06/24 02:16:02;;;;;;;5.53;4.95;;;19.00;90.20;;;;;;4973308;28;20030;-86
2022/06/24 02:18:30;;;;;;;7.65;5.75;;;18.90;90.40;;;;;;4973037;28;20631;-86
2022/06/24 02:20:57;;;;;;;6.50;5.40;;;18.90;90.80;;;;;;4970519;28;20043;-84
2022/06/24 02:23:23;;;;;;;6.20;5.60;;;18.90;91.00;;;;;;4975692;28;20030;-85
2022/06/24 02:25:50;;;;;;;6.25;4.95;;;18.80;91.10;;;;;;4964650;28;20403;-84
2022/06/24 02:28:17;;;;;;;7.70;5.13;;;18.80;91.20;;;;;;4956276;28;20034;-85
2022/06/24 02:30:44;;;;;;;6.10;5.50;;;18.80;91.30;;;;;;4977490;28;20034;-85
2022/06/24 02:33:10;;;;;;;5.45;4.95;;;18.80;91.30;;;;;;4958541;28;20046;-84
2022/06/24 02:35:37;;;;;;;5.72;5.22;;;18.70;91.40;;;;;;4975150;28;20630;-85
2022/06/24 02:38:03;;;;;;;6.00;5.45;;;18.70;91.40;;;;;;4991298;28;20030;-84
2022/06/24 02:43:16;;;;;;;6.53;5.45;;;18.70;91.70;;;;;;4972118;28;20490;-86
2022/06/24 02:45:47;;;;;;;6.28;5.68;;;18.70;92.00;;;;;;4965180;28;20057;-84
2022/06/24 02:48:14;;;;;;;7.85;6.25;;;18.70;92.40;;;;;;4978091;28;20085;-84
2022/06/24 02:50:45;;;;;;;7.72;6.22;;;18.80;92.80;;;;;;4947754;28;20472;-85
2022/06/24 02:53:12;;;;;;;6.35;5.75;;;18.80;92.90;;;;;;4994629;28;20034;-85
2022/06/24 02:55:38;;;;;;;6.25;5.43;;;18.80;93.10;;;;;;4990086;28;20029;-84
2022/06/24 02:58:05;;;;;;;6.28;5.68;;;18.80;93.50;;;;;;4994734;28;20079;-84
2022/06/24 03:00:31;;;;;;;6.20;5.57;;;18.90;93.60;;;;;;4987976;28;20500;-85
2022/06/24 03:02:58;;;;;;;6.97;6.28;;;19.00;93.80;;;;;;4981905;28;20121;-84
2022/06/24 03:05:24;;;;;;;6.90;5.35;;;19.10;93.90;;;;;;4965935;28;20033;-84
2022/06/24 03:07:50;;;;;;;6.10;5.40;;;19.10;94.00;;;;;;4975033;28;20210;-84
2022/06/24 03:10:17;;;;;;;6.63;5.32;;;19.20;94.00;;;;;;4959035;28;20042;-85
2022/06/24 03:12:43;;;;;;;7.50;5.53;;;19.20;94.10;;;;;;4993883;28;20526;-84
2022/06/24 03:15:10;;;;;;;6.90;5.63;;;19.20;94.20;;;;;;4993894;28;20590;-84
2022/06/24 03:17:37;;;;;;;7.28;5.32;;;19.20;94.30;;;;;;4971613;28;20453;-85
2022/06/24 03:20:08;;;;;;;5.70;5.20;;;19.20;94.70;;;;;;4957797;28;20049;-85
2022/06/24 03:22:34;;;;;;;5.78;5.00;;;19.20;94.40;;;;;;4990834;28;20034;-84
2022/06/24 03:24:59;;;;;;;8.25;5.35;;;19.20;94.60;;;;;;4942540;28;20113;-85
2022/06/24 03:27:25;;;;;;;6.07;5.45;;;19.10;94.90;;;;;;4978278;28;20146;-84
2022/06/24 03:29:51;;;;;;;6.88;5.50;;;19.10;95.10;;;;;;4986759;28;20088;-86
2022/06/24 03:32:17;;;;;;;6.35;5.75;;;19.00;95.30;;;;;;4956858;28;20129;-85
2022/06/24 03:34:43;;;;;;;5.45;4.95;;;19.10;95.30;;;;;;4974544;28;20042;-84
2022/06/24 03:37:09;;;;;;;5.13;4.72;;;19.00;95.30;;;;;;4988501;28;20040;-84
2022/06/24 03:39:36;;;;;;;6.68;5.50;;;19.00;95.40;;;;;;4989604;28;20030;-84
2022/06/24 03:42:02;;;;;;;5.38;4.88;;;19.00;95.60;;;;;;4953759;28;20038;-83
2022/06/24 03:44:28;;;;;;;6.35;5.68;;;19.00;95.80;;;;;;4954440;28;20485;-84
2022/06/24 03:46:54;;;;;;;5.30;4.80;;;18.90;95.90;;;;;;4944046;28;20065;-85
2022/06/24 03:49:20;;;;;;;5.93;5.32;;;18.90;96.00;;;;;;4974515;28;20485;-84
2022/06/24 03:51:46;;;;;;;5.38;4.88;;;18.90;96.20;;;;;;4974789;28;20064;-84
2022/06/24 03:54:12;;;;;;;5.07;4.55;;;18.90;96.60;;;;;;4973333;28;20121;-85
2022/06/24 03:56:38;;;;;;;7.10;5.20;;;18.90;96.80;;;;;;4956261;28;20125;-85
2022/06/24 03:59:04;;;;;;;5.63;4.97;;;18.90;96.80;;;;;;4971212;28;20081;-84
2022/06/24 04:01:30;;;;;;;6.93;5.07;;;18.90;96.60;;;;;;4984097;28;20044;-84
2022/06/24 04:03:56;;;;;;;5.90;5.30;;;18.90;96.70;;;;;;4975033;28;20042;-84
2022/06/24 04:06:21;;;;;;;5.47;4.97;;;18.90;97.00;;;;;;4983864;28;20057;-86
2022/06/24 04:08:48;;;;;;;5.45;4.95;;;18.90;96.90;;;;;;4941793;28;20122;-85
2022/06/24 04:11:16;;;;;;;6.53;4.85;;;18.90;97.20;;;;;;4992638;28;20080;-84
2022/06/24 04:13:42;;;;;;;6.18;5.57;;;18.90;97.60;;;;;;4975454;28;20058;-84
2022/06/24 04:16:08;;;;;;;7.55;5.70;;;18.80;98.00;;;;;;4971804;28;20061;-85
2022/06/24 04:18:34;;;;;;;6.00;5.22;;;18.80;98.20;;;;;;4975941;28;20030;-87
2022/06/24 04:21:00;;;;;;;6.88;4.75;;;18.80;98.50;;;;;;4958810;28;20385;-86
2022/06/24 04:23:26;;;;;;;5.40;4.93;;;18.90;98.80;;;;;;4955823;28;20042;-84
2022/06/24 04:25:52;;;;;;;5.70;5.20;;;19.00;98.70;;;;;;4979143;28;20030;-87
2022/06/24 04:28:18;;;;;;;5.72;5.10;;;19.10;98.90;;;;;;5004304;28;20400;-87
2022/06/24 04:30:44;;;;;;;7.22;6.53;;;19.30;99.60;;;;;;4988843;28;20400;-86
2022/06/24 04:33:10;;;;;;;22.00;15.80;;;19.40;99.80;;;;;;4975861;28;20038;-86
2022/06/24 04:35:36;;;;;;;7.45;6.15;;;19.60;99.90;;;;;;4976078;28;20034;-86
2022/06/24 04:38:02;;;;;;;6.22;5.07;;;19.70;99.90;;;;;;4975312;28;20034;-84
2022/06/24 04:40:28;;;;;;;7.18;5.07;;;19.90;99.90;;;;;;4968798;28;20057;-86
2022/06/24 04:42:54;;;;;;;6.45;5.88;;;20.00;99.90;;;;;;4976351;28;20092;-85
2022/06/24 04:45:20;;;;;;;6.55;5.07;;;20.10;99.90;;;;;;4967513;28;20038;-86
2022/06/24 04:47:46;;;;;;;6.03;5.50;;;20.20;99.90;;;;;;4962509;28;20084;-86
2022/06/24 04:50:12;;;;;;;6.25;5.65;;;20.30;99.90;;;;;;4961281;28;20046;-85
2022/06/24 04:52:39;;;;;;;6.03;5.32;;;20.30;99.50;;;;;;4961223;28;20080;-85
2022/06/24 04:55:06;;;;;;;6.63;5.80;;;20.40;99.40;;;;;;4979008;28;20038;-86
2022/06/24 04:57:32;;;;;;;5.13;4.70;;;20.50;99.10;;;;;;5013980;28;20097;-85
2022/06/24 04:59:58;;;;;;;6.88;6.18;;;20.50;99.00;;;;;;4993816;28;20137;-85
2022/06/24 05:02:24;;;;;;;6.72;6.03;;;20.60;99.00;;;;;;4995688;28;20029;-86
2022/06/24 05:04:50;;;;;;;9.23;7.03;;;20.60;98.50;;;;;;4975975;28;20037;-85
2022/06/24 05:07:16;;;;;;;10.55;7.60;;;20.60;98.40;;;;;;4972912;28;20415;-86
2022/06/24 05:09:42;;;;;;;8.80;6.80;;;20.60;98.40;;;;;;4974081;28;20037;-85
2022/06/24 05:12:09;;;;;;;7.57;6.43;;;20.60;98.10;;;;;;4993720;28;20452;-86
2022/06/24 05:14:35;;;;;;;6.25;5.57;;;20.60;98.70;;;;;;4978746;28;20855;-86
2022/06/24 05:17:01;;;;;;;7.40;6.18;;;20.60;98.70;;;;;;4992133;28;20034;-86
2022/06/24 05:19:27;;;;;;;6.18;5.57;;;20.60;98.80;;;;;;4980159;28;20062;-86
2022/06/24 05:21:53;;;;;;;7.05;6.35;;;20.60;99.00;;;;;;4980235;28;20065;-85
2022/06/24 05:24:19;;;;;;;6.22;5.63;;;20.60;99.50;;;;;;4974417;28;20030;-85
2022/06/24 05:26:45;;;;;;;7.93;6.03;;;20.60;99.50;;;;;;4988385;28;20462;-85
2022/06/24 05:29:11;;;;;;;8.63;6.07;;;20.60;98.80;;;;;;4976296;28;20065;-84
2022/06/24 05:31:38;;;;;;;6.75;5.97;;;20.70;99.00;;;;;;4988821;28;20496;-85
2022/06/24 05:34:04;;;;;;;6.43;5.82;;;20.60;99.40;;;;;;4959006;28;20288;-88
2022/06/24 05:36:29;;;;;;;7.25;6.50;;;20.50;99.90;;;;;;4956921;28;20453;-86
2022/06/24 05:38:56;;;;;;;6.40;5.72;;;20.40;99.90;;;;;;4974983;28;20061;-86
2022/06/24 05:41:22;;;;;;;7.35;5.82;;;20.30;99.90;;;;;;4993064;28;20050;-86
2022/06/24 05:43:48;;;;;;;6.93;6.00;;;20.10;99.90;;;;;;4976490;28;20023;-86
2022/06/24 05:46:14;;;;;;;11.93;6.10;;;19.90;99.90;;;;;;4976698;28;20118;-86
2022/06/24 05:48:40;;;;;;;7.15;5.55;;;19.70;99.90;;;;;;4976668;28;20552;-86
2022/06/24 05:51:17;;;;;;;6.18;5.57;;;19.60;99.90;;;;;;4978494;28;20042;-87
2022/06/24 05:56:30;;;;;;;6.40;5.75;;;19.30;99.90;;;;;;5003155;28;20088;-85
2022/06/24 05:58:57;;;;;;;8.38;6.57;;;19.20;99.90;;;;;;4951887;28;20509;-85
2022/06/24 06:01:23;;;;;;;9.50;6.65;;;19.10;99.90;;;;;;4976335;28;20026;-85
2022/06/24 06:03:50;;;;;;;10.90;7.30;;;19.10;99.90;;;;;;4982775;28;20481;-86
2022/06/24 06:06:16;;;;;;;10.13;7.00;;;19.00;99.90;;;;;;4990816;28;20029;-87
2022/06/24 06:08:42;;;;;;;10.52;7.28;;;19.00;99.90;;;;;;4995079;28;20080;-87
2022/06/24 06:11:16;;;;;;;8.73;6.88;;;19.00;99.90;;;;;;4987416;28;20108;-87
2022/06/24 06:13:43;;;;;;;8.73;7.55;;;19.00;99.90;;;;;;4975705;28;20042;-88
2022/06/24 06:16:10;;;;;;;7.97;6.30;;;18.90;99.90;;;;;;4984253;28;20040;-87
2022/06/24 06:18:36;;;;;;;9.15;5.85;;;18.90;99.90;;;;;;4988887;28;20026;-89
2022/06/24 06:21:07;;;;;;;6.53;5.38;;;18.90;99.90;;;;;;4977653;28;20022;-88
2022/06/24 06:23:34;;;;;;;6.10;5.50;;;18.90;99.90;;;;;;4991902;28;20034;-87
2022/06/24 06:26:01;;;;;;;6.80;5.40;;;18.90;99.90;;;;;;4981095;28;20476;-86
2022/06/24 06:28:27;;;;;;;7.40;5.50;;;19.00;99.90;;;;;;4975393;28;20085;-87
2022/06/24 06:30:53;;;;;;;9.18;5.80;;;19.00;99.90;;;;;;4973913;28;20022;-86
2022/06/24 06:33:19;;;;;;;8.82;5.68;;;19.00;99.90;;;;;;4975309;28;20469;-85
2022/06/24 06:35:45;;;;;;;8.98;5.03;;;19.00;99.90;;;;;;4977376;28;20033;-86
2022/06/24 06:38:11;;;;;;;5.55;4.45;;;19.00;99.90;;;;;;4971810;28;20038;-87
2022/06/24 06:40:38;;;;;;;5.35;4.85;;;19.10;99.90;;;;;;4971635;28;20025;-87
2022/06/24 06:43:07;;;;;;;5.78;5.18;;;19.10;99.90;;;;;;4973997;28;20054;-87
2022/06/24 06:45:34;;;;;;;5.05;4.47;;;19.10;99.90;;;;;;4977769;28;20511;-87
2022/06/24 06:48:00;;;;;;;6.75;4.90;;;19.10;99.90;;;;;;4994304;28;20033;-88
2022/06/24 06:50:26;;;;;;;7.80;5.15;;;19.10;99.90;;;;;;4960344;28;20427;-88
2022/06/24 06:52:52;;;;;;;6.95;5.32;;;19.10;99.90;;;;;;4982823;28;20034;-87
2022/06/24 06:55:18;;;;;;;7.10;5.35;;;19.10;99.90;;;;;;4975864;28;20046;-88
2022/06/24 06:57:44;;;;;;;6.50;5.05;;;19.20;99.90;;;;;;4991586;28;20065;-86
2022/06/24 07:00:10;;;;;;;6.00;4.75;;;19.20;99.90;;;;;;4974940;28;20472;-87
2022/06/24 07:02:37;;;;;;;5.20;4.72;;;19.30;99.90;;;;;;4971942;28;20432;-88
2022/06/24 07:05:04;;;;;;;8.45;4.65;;;19.30;99.90;;;;;;4975064;28;20101;-87
2022/06/24 07:07:30;;;;;;;4.95;4.22;;;19.50;99.90;;;;;;4976707;28;20121;-86
2022/06/24 07:09:57;;;;;;;7.30;4.88;;;19.80;99.90;;;;;;4974895;28;20133;-86
2022/06/24 07:12:23;;;;;;;5.60;4.78;;;20.00;99.90;;;;;;4964111;28;20077;-86
2022/06/24 07:14:49;;;;;;;5.57;3.75;;;20.30;99.90;;;;;;4940963;28;20035;-86
2022/06/24 07:17:16;;;;;;;5.13;4.13;;;20.60;99.90;;;;;;4941079;28;20219;-86
2022/06/24 07:19:42;;;;;;;6.00;4.25;;;20.90;99.90;;;;;;4971125;28;20042;-86
2022/06/24 07:22:09;;;;;;;5.20;4.47;;;21.10;99.90;;;;;;4992531;28;20092;-87
2022/06/24 07:24:35;;;;;;;5.07;4.53;;;21.20;99.90;;;;;;4974908;28;20027;-85
2022/06/24 07:27:09;;;;;;;6.07;4.63;;;21.30;99.90;;;;;;4973660;28;20038;-86
2022/06/24 07:29:35;;;;;;;6.28;4.97;;;21.40;99.90;;;;;;4957970;28;20049;-87
2022/06/24 07:32:06;;;;;;;6.20;4.93;;;21.40;99.90;;;;;;4974139;28;20492;-86
2022/06/24 07:34:33;;;;;;;8.00;5.15;;;21.40;99.90;;;;;;4994286;28;20048;-86
2022/06/24 07:37:00;;;;;;;6.30;4.32;;;21.40;99.90;;;;;;4980137;28;20497;-86
2022/06/24 07:39:26;;;;;;;4.53;3.92;;;21.50;99.90;;;;;;4973959;28;20118;-85
2022/06/24 07:41:53;;;;;;;4.32;3.47;;;21.50;99.90;;;;;;4975316;28;20104;-85
2022/06/24 07:44:20;;;;;;;5.68;4.18;;;21.60;99.90;;;;;;4943358;28;20038;-87
2022/06/24 07:46:46;;;;;;;7.53;4.18;;;21.70;99.90;;;;;;4975324;28;20034;-86
2022/06/24 07:49:12;;;;;;;8.07;3.65;;;21.90;99.90;;;;;;4990425;28;20045;-86
2022/06/24 07:51:38;;;;;;;7.38;4.10;;;21.90;99.90;;;;;;4975272;28;20069;-86
2022/06/24 07:54:10;;;;;;;8.27;4.05;;;21.90;99.90;;;;;;4974147;28;20038;-85
2022/06/24 07:56:58;;;;;;;7.68;4.60;;;21.90;99.90;;;;;;4986449;28;20057;-85
2022/06/24 07:59:25;;;;;;;5.70;4.32;;;21.90;99.90;;;;;;4986598;28;20026;-86
2022/06/24 08:01:52;;;;;;;4.47;3.75;;;21.90;99.90;;;;;;4990641;28;20023;-85
2022/06/24 08:04:19;;;;;;;5.45;4.22;;;21.80;99.90;;;;;;4990764;28;20049;-86
2022/06/24 08:06:46;;;;;;;4.53;3.60;;;21.80;99.90;;;;;;4986988;28;20038;-86
2022/06/24 08:09:16;;;;;;;4.00;3.28;;;21.70;99.90;;;;;;4994067;28;20041;-85
2022/06/24 08:11:42;;;;;;;4.57;3.35;;;21.70;99.90;;;;;;4981998;28;20158;-86
2022/06/24 08:14:08;;;;;;;5.20;3.70;;;21.70;99.90;;;;;;4974406;28;20068;-85
2022/06/24 08:16:34;;;;;;;4.38;3.45;;;21.70;99.90;;;;;;4977974;28;20038;-84
2022/06/24 08:19:00;;;;;;;5.10;3.50;;;21.70;99.90;;;;;;4974428;28;20069;-86
2022/06/24 08:21:26;;;;;;;3.83;3.50;;;21.50;99.90;;;;;;4985608;28;20034;-86
2022/06/24 08:23:52;;;;;;;4.97;3.28;;;21.40;99.90;;;;;;4984565;28;20054;-87
2022/06/24 08:26:17;;;;;;;5.90;3.67;;;21.30;99.90;;;;;;4976183;28;20566;-86
2022/06/24 08:28:44;;;;;;;6.80;4.05;;;21.20;99.90;;;;;;4978558;28;20563;-85
2022/06/24 08:31:10;;;;;;;5.93;3.80;;;21.00;99.90;;;;;;4979130;28;20031;-86
2022/06/24 08:33:36;;;;;;;4.70;3.80;;;20.90;99.90;;;;;;4995017;28;20061;-86
2022/06/24 08:36:03;;;;;;;4.72;3.40;;;20.90;99.90;;;;;;4969503;28;20515;-86
2022/06/24 08:38:29;;;;;;;3.47;2.70;;;20.70;99.90;;;;;;4997611;28;20034;-84
2022/06/24 08:40:58;;;;;;;3.78;2.75;;;20.70;99.90;;;;;;4987105;28;20022;-86
2022/06/24 08:43:23;;;;;;;6.22;3.13;;;20.60;99.90;;;;;;4995351;28;20034;-85
2022/06/24 08:45:50;;;;;;;3.58;2.60;;;20.50;99.90;;;;;;4975227;28;20031;-86
2022/06/24 08:48:16;;;;;;;3.17;2.53;;;20.30;99.90;;;;;;4955403;28;20531;-85
2022/06/24 08:50:42;;;;;;;5.63;3.58;;;20.30;99.90;;;;;;4977755;28;20030;-85
2022/06/24 08:53:11;;;;;;;4.70;2.60;;;20.20;99.90;;;;;;4978060;28;20034;-86
2022/06/24 08:55:39;;;;;;;3.50;3.10;;;20.10;99.90;;;;;;4962306;28;20089;-85
2022/06/24 08:58:12;;;;;;;3.28;2.97;;;20.00;99.90;;;;;;4945975;28;20030;-85
2022/06/24 09:00:39;;;;;;;4.90;3.63;;;20.00;99.90;;;;;;4981157;28;20038;-86
2022/06/24 09:03:06;;;;;;;5.32;3.65;;;19.90;99.90;;;;;;4996665;28;20030;-86
2022/06/24 09:05:33;;;;;;;6.72;3.35;;;19.80;99.90;;;;;;4976792;28;20030;-88
2022/06/24 09:08:09;;;;;;;6.55;3.42;;;19.80;99.90;;;;;;4977030;28;20049;-86
2022/06/24 09:10:37;;;;;;;5.97;3.42;;;19.80;99.90;;;;;;4980095;28;20065;-87
2022/06/24 09:13:04;;;;;;;10.93;8.48;;;19.80;99.90;;;;;;4996238;28;20065;-86
2022/06/24 09:15:31;;;;;;;13.57;9.80;;;19.80;99.90;;;;;;4982435;28;20617;-87
2022/06/24 09:17:59;;;;;;;16.02;11.05;;;19.90;99.90;;;;;;4976747;28;20041;-87
2022/06/24 09:20:27;;;;;;;12.18;10.60;;;20.10;99.90;;;;;;4994645;28;20027;-87
2022/06/24 09:23:07;;;;;;;12.15;10.70;;;20.10;99.90;;;;;;4993075;28;20030;-87
2022/06/24 09:25:42;;;;;;;12.65;11.30;;;20.10;99.90;;;;;;4964216;28;20034;-86
2022/06/24 09:28:08;;;;;;;12.82;11.07;;;20.30;99.90;;;;;;4957742;28;20041;-87
2022/06/24 09:30:38;;;;;;;13.15;10.57;;;20.40;99.90;;;;;;4963896;28;20408;-86
2022/06/24 09:33:04;;;;;;;13.38;11.27;;;20.60;99.90;;;;;;4993932;28;20827;-87
2022/06/24 09:35:34;;;;;;;12.90;9.80;;;20.50;99.90;;;;;;4979230;28;20026;-84
2022/06/24 09:38:00;;;;;;;13.18;11.27;;;20.60;99.90;;;;;;4976736;28;20038;-85
2022/06/24 09:40:28;;;;;;;12.95;9.73;;;20.70;99.90;;;;;;4978753;28;20023;-85
2022/06/24 09:43:09;;;;;;;14.02;10.27;;;20.70;99.90;;;;;;4984961;28;20049;-85
2022/06/24 09:45:53;;;;;;;13.55;11.18;;;20.50;99.90;;;;;;4979410;28;20044;-84
2022/06/24 09:48:32;;;;;;;12.85;10.35;;;20.50;99.90;;;;;;4990207;28;20030;-87
2022/06/24 09:51:03;;;;;;;14.18;9.65;;;20.60;99.90;;;;;;4977811;28;20663;-86
2022/06/24 09:53:37;;;;;;;12.68;10.90;;;20.60;99.90;;;;;;4978230;28;20034;-88
2022/06/24 09:56:07;;;;;;;13.13;9.07;;;20.90;99.90;;;;;;4972700;28;20041;-86
2022/06/24 09:58:37;;;;;;;15.45;10.65;;;21.10;99.90;;;;;;4977599;28;20109;-86
2022/06/24 10:01:04;;;;;;;14.50;9.93;;;21.20;99.90;;;;;;4987648;28;20477;-86
2022/06/24 10:03:31;;;;;;;10.68;8.57;;;21.40;99.90;;;;;;4977400;28;20132;-86
2022/06/24 10:06:03;;;;;;;9.23;7.60;;;21.30;99.90;;;;;;4977008;28;20053;-86
2022/06/24 10:08:37;;;;;;;12.20;8.07;;;21.50;99.90;;;;;;4992090;28;20106;-86
2022/06/24 10:11:09;;;;;;;10.25;6.45;;;21.70;99.90;;;;;;4996817;28;20028;-86
2022/06/24 10:13:35;;;;;;;7.80;4.85;;;22.00;99.90;;;;;;4976539;28;20038;-84
2022/06/24 10:16:03;;;;;;;4.53;3.50;;;22.20;99.90;;;;;;4984266;28;20026;-85
2022/06/24 10:18:34;;;;;;;7.07;2.92;;;22.30;99.90;;;;;;4981213;28;20030;-85
2022/06/24 10:21:03;;;;;;;4.07;3.33;;;22.40;99.90;;;;;;4952863;28;20121;-87
2022/06/24 10:23:43;;;;;;;4.32;2.90;;;22.40;99.90;;;;;;4995154;28;20025;-84
2022/06/24 10:26:09;;;;;;;4.13;2.30;;;22.40;99.90;;;;;;4979387;28;20038;-85
2022/06/24 10:29:04;;;;;;;3.05;2.50;;;22.40;99.90;;;;;;4980909;28;20034;-85
2022/06/24 10:31:42;;;;;;;2.55;2.35;;;22.40;99.90;;;;;;4977094;28;20038;-84
2022/06/24 10:34:23;;;;;;;3.35;2.60;;;22.30;99.90;;;;;;4977416;28;20034;-86
2022/06/24 10:36:50;;;;;;;2.00;1.80;;;22.30;99.90;;;;;;4977367;28;20110;-86
2022/06/24 10:39:18;;;;;;;4.80;2.13;;;22.20;99.90;;;;;;4995288;28;20030;-84
2022/06/24 10:41:44;;;;;;;4.22;2.50;;;22.10;99.90;;;;;;4977558;28;20038;-86
2022/06/24 10:44:35;;;;;;;6.45;2.58;;;22.20;99.90;;;;;;4977618;28;20100;-85
2022/06/24 10:47:12;;;;;;;3.08;2.00;;;22.30;99.90;;;;;;4991970;28;20034;-85
2022/06/24 10:49:50;;;;;;;3.00;1.70;;;22.50;99.90;;;;;;4978492;28;20026;-86
2022/06/24 10:52:50;;;;;;;3.40;1.77;;;22.60;99.90;;;;;;4976920;28;20038;-86
2022/06/24 10:57:47;;;;;;;5.38;1.95;;;23.00;99.90;;;;;;4997681;28;20516;-86
2022/06/24 11:00:25;;;;;;;2.03;1.50;;;23.10;99.90;;;;;;4975323;28;20030;-87
2022/06/24 11:02:57;;;;;;;3.03;1.70;;;23.10;99.90;;;;;;4961650;28;20050;-86
2022/06/24 11:05:26;;;;;;;4.53;2.42;;;23.10;99.90;;;;;;4981881;28;20031;-86
2022/06/24 11:07:52;;;;;;;2.10;1.85;;;23.30;99.90;;;;;;4957717;28;20404;-86
2022/06/24 11:10:21;;;;;;;3.50;2.03;;;23.30;99.90;;;;;;4977219;28;20027;-84
2022/06/24 11:13:00;;;;;;;3.75;1.55;;;23.30;99.90;;;;;;4973490;28;20027;-86
2022/06/24 11:15:48;;;;;;;1.90;1.45;;;23.20;99.90;;;;;;4977616;28;20033;-84
2022/06/24 11:18:28;;;;;;;5.63;2.10;;;23.10;99.90;;;;;;4969893;28;20031;-87
2022/06/24 11:20:56;;;;;;;3.50;2.15;;;23.00;99.90;;;;;;4977679;28;20391;-84
2022/06/24 11:23:24;;;;;;;4.03;2.25;;;23.10;99.90;;;;;;4974427;28;20069;-86
2022/06/24 11:26:02;;;;;;;4.32;2.00;;;23.00;99.90;;;;;;4975590;28;20086;-87
2022/06/24 11:28:32;;;;;;;2.88;2.25;;;23.00;99.90;;;;;;4975507;28;20038;-86
2022/06/24 11:31:14;;;;;;;3.15;2.35;;;22.80;99.90;;;;;;4975609;28;20046;-87
2022/06/24 11:33:40;;;;;;;3.22;2.22;;;22.70;99.90;;;;;;4955317;28;20053;-87
2022/06/24 11:36:07;;;;;;;3.33;1.88;;;22.80;99.90;;;;;;4960421;28;20039;-86
2022/06/24 11:38:36;;;;;;;5.30;2.00;;;22.70;99.90;;;;;;4971457;28;20106;-84
2022/06/24 11:41:02;;;;;;;2.75;1.75;;;22.80;99.90;;;;;;4975324;28;20042;-86
2022/06/24 11:43:28;;;;;;;2.78;1.95;;;22.80;99.90;;;;;;4974985;28;20038;-86
2022/06/24 11:45:57;;;;;;;3.85;1.90;;;22.80;99.90;;;;;;4976796;28;20037;-85
2022/06/24 11:48:24;;;;;;;4.45;1.70;;;22.90;99.90;;;;;;4975054;28;20034;-86
2022/06/24 11:50:51;;;;;;;2.45;1.75;;;22.90;99.90;;;;;;4964092;28;20041;-87
2022/06/24 11:53:25;;;;;;;3.17;1.95;;;23.10;99.90;;;;;;4976802;28;20054;-85
2022/06/24 11:55:52;;;;;;;4.05;1.85;;;23.10;99.90;;;;;;4980126;28;20480;-88
2022/06/24 11:58:20;;;;;;;5.07;2.28;;;23.30;99.90;;;;;;4955344;28;20034;-86
2022/06/24 12:00:46;;;;;;;3.55;1.90;;;23.40;99.90;;;;;;4978604;28;20026;-86
2022/06/24 12:03:13;;;;;;;3.33;1.73;;;23.30;99.90;;;;;;4975036;28;20125;-86
2022/06/24 12:05:42;;;;;;;3.15;1.80;;;23.30;99.90;;;;;;4970866;28;20039;-84
2022/06/24 12:08:09;;;;;;;3.38;2.00;;;23.40;99.90;;;;;;4975055;28;20034;-85
2022/06/24 12:10:35;;;;;;;2.47;1.77;;;23.40;99.90;;;;;;4977874;28;20037;-88
2022/06/24 12:13:05;;;;;;;6.55;2.00;;;23.60;99.90;;;;;;5004418;28;20587;-86
2022/06/24 12:15:37;;;;;;;3.78;1.60;;;23.70;99.90;;;;;;4993428;28;20084;-85
2022/06/24 12:18:19;;;;;;;4.20;1.92;;;23.80;99.90;;;;;;4984462;28;20469;-90
2022/06/24 12:20:58;;;;;;;4.35;1.67;;;24.00;99.90;;;;;;4974928;28;20041;-86
2022/06/24 12:23:25;;;;;;;5.03;1.75;;;24.00;99.90;;;;;;4974663;28;20397;-88
2022/06/24 12:25:51;;;;;;;4.72;1.58;;;23.90;99.90;;;;;;4980001;28;20552;-87
2022/06/24 12:28:23;;;;;;;8.18;2.55;;;24.00;99.90;;;;;;4994133;28;20115;-89
2022/06/24 12:30:58;;;;;;;5.07;1.67;;;24.00;99.90;;;;;;5004716;28;20050;-86
2022/06/24 12:33:24;;;;;;;4.50;1.13;;;24.00;99.90;;;;;;4991219;28;20038;-86
2022/06/24 12:36:09;;;;;;;6.35;1.58;;;23.90;99.90;;;;;;4958562;28;20042;-86
2022/06/24 12:38:36;;;;;;;2.80;1.60;;;24.10;99.90;;;;;;4989928;28;20674;-88
2022/06/24 12:41:11;;;;;;;3.47;1.15;;;24.40;99.90;;;;;;4974972;28;20026;-88
2022/06/24 12:43:49;;;;;;;5.47;1.83;;;24.60;99.80;;;;;;4974218;28;20031;-86
2022/06/24 12:46:15;;;;;;;1.85;1.25;;;24.80;99.70;;;;;;4985369;28;20069;-87
2022/06/24 12:51:25;;;;;;;3.10;1.67;;;25.10;98.00;;;;;;4973748;28;20030;-87
2022/06/24 12:53:53;;;;;;;4.80;1.55;;;25.10;97.10;;;;;;4992258;28;20445;-87
2022/06/24 12:56:20;;;;;;;3.28;1.30;;;25.00;95.40;;;;;;4983508;28;20076;-87
2022/06/24 12:58:48;;;;;;;1.95;1.00;;;25.10;96.40;;;;;;4941223;28;20043;-85
2022/06/24 13:01:14;;;;;;;1.92;1.48;;;25.10;95.00;;;;;;4972911;28;20108;-87
2022/06/24 13:03:40;;;;;;;5.30;1.90;;;25.30;96.60;;;;;;4993749;28;20103;-86
2022/06/24 13:06:05;;;;;;;5.30;1.63;;;25.50;95.20;;;;;;4970267;28;20552;-84